KLGD

La Grande / Union County Airport

La Grande, Oregon, USA
METAR KLGD 232156Z AUTO 19007KT 10SM FEW110 M02/M11 A3025 RMK AO2 SLP375 T10221111 FZRANO
Observed Flight Rules
Feb-23 @ 21:56 UTC (35 minutes ago) Visual Flight Rules
Wind Visibility Clouds
190° at 7 knots 10 miles
  • Few at 11,000' AGL
Temperatures Readings
Current -2°C / 28°F
Dewpoint -11°C / 12°F
Humidity 51%
Altimeter 30.25" Hg
Pressure 1037.5 hPa
Elevation 827
METAR KLGD 232156Z AUTO 19007KT 10SM FEW110 M02/M11 A3025 RMK AO2 SLP375 T10221111 FZRANO
Observed Flight Rules
Feb-23 @ 21:56 UTC
(35 minutes ago)
VFR
Wind Visibility
190° at 7 knots 10 miles
Clouds
  • Few at 11,000' AGL
Temperature Dewpoint
-2°C / 28°F -11°C / 12°F
Humidity Altimeter Pressure
51% 30.25" Hg 1037.5 hPa